Villa Verona, California
Current Conditions -  °F | °C
As of 12:53 PM on Friday 24 Oct 2014 (Local Time) from KOVE Reporting Station
Clear Clear  
Wind Chill: 71°   Ceiling: Unl
Heat Index: 71°   Visibility: 10mi
Dew Point: 49°   Wind: 6mph
Humidity: 45%   Direction: 170°S
Pressure: 29.95"   Gusts: NA
Location:  39.5324°N, 121.648°W
Report Text: KOVE 241953Z AUTO 17005KT 10SM CLR 22/09 A2995 RMK AO2 SLP141 T02170094
Loading
Personal Weather Stations






























Interactive Weather Map
Tropical Storm Tracking
New forecast layout! Learn more

10-Day Weather Forecast

Advertisements
Track Severe Weather on mobile